Redwater, Texas
Current Conditions -  °F | °C
As of 1:53 AM on Thursday 29 Jan 2015 (Local Time) from KTXK Reporting Station
Few Clouds Few Clouds  
Wind Chill: 57°   Ceiling: Unl
Heat Index: 57°   Visibility: 10mi
Dew Point: 45°   Wind: 16mph
Humidity: 64%   Direction: 200°SSW
Pressure: 30.05"   Gusts: NA
Location:  33.36°N, 94.25°W
Report Text: KTXK 290753Z AUTO 20014KT 10SM FEW120 14/07 A3005 RMK AO2 SLP171 T01390072
Loading
Personal Weather Stations






























Interactive Weather Map New forecast layout! Learn more

10-Day Weather Forecast

Advertisements
Track Severe Weather on mobile